Time;durP1;ratioP1;P1;durP2;ratioP2;P2;SDS_P1;SDS_P2;PMS_P1;PMS_P2;Temp;Humidity;BMP_temperature;BMP_pressure;BME280_temperature;BME280_humidity;BME280_pressure;Samples;Min_cycle;Max_cycle;Signal;HPM_P1;HPM_P2
2021/01/18 00:00:23;;;;;;;109.45;55.75;;;;;;;;;;5073520;28;20099;-75
2021/01/18 00:02:49;;;;;;;94.75;55.38;;;;;;;;;;5072701;28;20024;-74
2021/01/18 00:05:16;;;;;;;102.72;53.40;;;;;;;;;;5073911;28;20032;-76
2021/01/18 00:07:51;;;;;;;102.75;54.50;;;;;;;;;;5073191;28;20078;-75
2021/01/18 00:10:19;;;;;;;115.65;58.95;;;;;;;;;;5073332;28;20016;-73
2021/01/18 00:12:45;;;;;;;112.30;60.22;;;;;;;;;;5073889;28;20039;-71
2021/01/18 00:15:12;;;;;;;103.78;57.03;;;;;;;;;;5073539;28;20031;-74
2021/01/18 00:17:38;;;;;;;111.95;57.22;;;;;;;;;;5072680;28;20470;-74
2021/01/18 00:20:04;;;;;;;112.18;57.55;;;;;;;;;;5067748;28;20567;-71
2021/01/18 00:22:30;;;;;;;99.78;54.03;;;;;;;;;;5037878;28;20108;-75
2021/01/18 00:24:56;;;;;;;103.30;57.42;;;;;;;;;;5071671;28;20017;-74
2021/01/18 00:27:22;;;;;;;100.30;52.92;;;;;;;;;;5073126;28;20017;-72
2021/01/18 00:29:48;;;;;;;88.75;52.15;;;;;;;;;;5072662;28;20036;-73
2021/01/18 00:32:22;;;;;;;86.55;48.50;;;;;;;;;;5040815;28;20029;-72
2021/01/18 00:34:48;;;;;;;92.40;46.65;;;;;;;;;;5069250;28;20112;-72
2021/01/18 00:37:13;;;;;;;92.32;45.55;;;-3.50;99.90;;;;;;5073179;28;20093;-73
2021/01/18 00:39:39;;;;;;;88.03;47.33;;;-3.50;99.90;;;;;;5063734;28;20107;-73
2021/01/18 00:42:05;;;;;;;97.22;49.38;;;-3.50;99.90;;;;;;5048662;28;20021;-73
2021/01/18 00:44:30;;;;;;;88.22;48.35;;;-3.40;99.90;;;;;;5048605;28;20025;-76
2021/01/18 00:46:56;;;;;;;95.78;48.50;;;-3.20;99.90;;;;;;5048721;28;20067;-73
2021/01/18 00:49:22;;;;;;;82.18;45.60;;;-2.60;99.90;;;;;;5072717;28;20036;-72
2021/01/18 00:51:48;;;;;;;90.13;47.53;;;-3.10;99.90;;;;;;5072196;28;20028;-76
2021/01/18 00:54:13;;;;;;;79.30;43.65;;;-3.00;99.90;;;;;;5072499;28;20030;-73
2021/01/18 00:56:39;;;;;;;79.57;43.20;;;-3.00;99.90;;;;;;5055021;28;20104;-73
2021/01/18 00:59:05;;;;;;;76.90;40.95;;;-2.80;99.90;;;;;;5072170;28;20689;-71
2021/01/18 01:01:32;;;;;;;75.68;40.65;;;-2.80;99.90;;;;;;5071899;28;20107;-72
2021/01/18 01:03:58;;;;;;;73.93;38.58;;;-3.10;99.90;;;;;;5072141;28;20025;-72
2021/01/18 01:06:23;;;;;;;79.00;44.53;;;-2.90;99.90;;;;;;5072821;28;20051;-71
2021/01/18 01:08:49;;;;;;;80.55;42.83;;;-2.90;99.90;;;;;;5072320;28;20064;-74
2021/01/18 01:11:15;;;;;;;79.03;42.15;;;-2.80;99.90;;;;;;5054430;28;20032;-73
2021/01/18 01:13:40;;;;;;;69.80;35.08;;;-2.80;99.90;;;;;;5072752;28;20025;-75
2021/01/18 01:16:06;;;;;;;75.97;39.20;;;-2.80;99.90;;;;;;5071985;28;20024;-73
2021/01/18 01:18:32;;;;;;;78.90;42.47;;;-2.80;99.90;;;;;;5054636;28;20045;-70
2021/01/18 01:20:57;;;;;;;80.28;43.13;;;-2.70;99.90;;;;;;5058869;28;20481;-71
2021/01/18 01:23:23;;;;;;;86.00;44.92;;;-2.70;99.90;;;;;;5072026;28;20480;-72
2021/01/18 01:25:49;;;;;;;79.82;41.17;;;-2.80;99.90;;;;;;5051347;28;20646;-72
2021/01/18 01:28:14;;;;;;;85.63;42.92;;;-2.80;99.90;;;;;;5066206;28;20029;-71
2021/01/18 01:30:40;;;;;;;78.65;42.33;;;-2.80;99.90;;;;;;5061992;28;20394;-73
2021/01/18 01:33:06;;;;;;;88.88;45.47;;;-2.80;99.90;;;;;;5071663;28;20029;-73
2021/01/18 01:35:31;;;;;;;79.35;44.65;;;-2.80;99.90;;;;;;5072348;28;20450;-72
2021/01/18 01:37:57;;;;;;;84.72;43.33;;;-2.80;99.90;;;;;;5073031;28;20060;-70
2021/01/18 01:40:23;;;;;;;92.80;46.60;;;-2.90;99.90;;;;;;5074727;28;20028;-71
2021/01/18 01:42:49;;;;;;;87.40;48.95;;;-2.90;99.90;;;;;;5043403;28;20071;-71
2021/01/18 01:45:17;;;;;;;92.03;45.13;;;-2.90;99.90;;;;;;5037923;28;20016;-70
2021/01/18 01:48:01;;;;;;;88.28;44.45;;;-2.90;99.90;;;;;;5071505;28;20028;-71
2021/01/18 01:50:27;;;;;;;85.45;44.80;;;-2.90;99.90;;;;;;5072329;28;20036;-70
2021/01/18 01:53:07;;;;;;;70.50;38.85;;;-2.80;99.90;;;;;;5071727;28;20463;-69
2021/01/18 01:55:33;;;;;;;85.88;46.22;;;-2.90;99.90;;;;;;5058065;28;20020;-70
2021/01/18 01:58:01;;;;;;;85.05;43.15;;;-2.80;99.90;;;;;;5072196;28;20493;-70
2021/01/18 02:00:45;;;;;;;95.93;49.25;;;-2.90;99.90;;;;;;5071082;28;20032;-72
2021/01/18 02:03:16;;;;;;;89.55;45.65;;;-2.80;99.90;;;;;;5059567;28;20024;-71
2021/01/18 02:05:42;;;;;;;83.78;45.00;;;-2.80;99.90;;;;;;5040534;28;20021;-70
2021/01/18 02:08:09;;;;;;;88.85;44.85;;;-2.90;99.90;;;;;;5057462;28;20470;-73
2021/01/18 02:10:36;;;;;;;77.65;42.95;;;-2.80;99.90;;;;;;5072331;28;20067;-69
2021/01/18 02:13:26;;;;;;;76.82;39.72;;;-2.80;99.90;;;;;;5071721;28;20023;-71
2021/01/18 02:15:59;;;;;;;72.82;38.83;;;-2.80;99.90;;;;;;5071255;28;20382;-71
2021/01/18 02:18:45;;;;;;;78.13;40.57;;;-2.90;99.90;;;;;;5061166;28;20139;-70
2021/01/18 02:21:45;;;;;;;86.70;41.88;;;-2.80;99.90;;;;;;5060947;28;20029;-72
2021/01/18 02:24:28;;;;;;;78.93;39.38;;;-2.80;99.90;;;;;;5076758;28;20029;-70
2021/01/18 02:27:17;;;;;;;81.95;42.30;;;-2.90;99.90;;;;;;5062647;28;20034;-71
2021/01/18 02:30:05;;;;;;;78.13;42.03;;;-2.90;99.90;;;;;;5075916;28;20470;-70
2021/01/18 02:32:52;;;;;;;86.00;41.67;;;-2.80;99.90;;;;;;5076159;28;20032;-70
2021/01/18 02:35:28;;;;;;;77.82;40.25;;;-3.00;99.90;;;;;;5075859;28;20028;-71
2021/01/18 02:38:15;;;;;;;79.93;41.33;;;-3.10;99.90;;;;;;5063331;28;20120;-70
2021/01/18 02:40:56;;;;;;;76.55;41.00;;;-3.10;99.90;;;;;;5064600;28;20056;-71
2021/01/18 02:43:28;;;;;;;69.32;38.97;;;-3.10;99.90;;;;;;5074762;28;20059;-71
2021/01/18 02:45:55;;;;;;;65.07;35.83;;;-3.20;99.90;;;;;;5075921;28;20197;-71
2021/01/18 02:48:23;;;;;;;73.47;34.50;;;-3.10;99.90;;;;;;5075918;28;20025;-69
2021/01/18 02:50:51;;;;;;;72.18;39.03;;;-3.20;99.90;;;;;;5074643;28;20115;-70
2021/01/18 02:53:17;;;;;;;78.13;41.40;;;-3.20;99.90;;;;;;5062000;28;20025;-70
2021/01/18 02:55:43;;;;;;;87.65;46.22;;;-3.30;99.90;;;;;;5075047;28;20031;-69
2021/01/18 02:58:11;;;;;;;87.45;49.13;;;-3.40;99.90;;;;;;5074962;28;20035;-69
2021/01/18 03:00:48;;;;;;;92.00;49.20;;;-3.40;99.90;;;;;;5076233;28;20023;-70
2021/01/18 03:03:36;;;;;;;99.85;53.22;;;-3.50;99.90;;;;;;5075816;28;20020;-71
2021/01/18 03:06:19;;;;;;;108.63;56.60;;;-3.40;99.90;;;;;;5075457;28;20416;-70
2021/01/18 03:08:58;;;;;;;91.22;46.35;;;-3.40;99.90;;;;;;5075529;28;20086;-68
2021/01/18 03:11:35;;;;;;;87.25;47.92;;;-3.80;99.90;;;;;;5075127;28;20047;-69
2021/01/18 03:14:09;;;;;;;77.25;42.15;;;;;;;;;;5075467;28;20042;-68
2021/01/18 03:16:38;;;;;;;;;;;-4.00;99.90;;;;;;5075355;28;20075;-70
2021/01/18 03:19:06;;;;;;;79.80;42.35;;;-4.00;99.90;;;;;;5069757;28;19944;-71
2021/01/18 03:21:32;;;;;;;79.93;42.95;;;-4.10;99.90;;;;;;5070262;28;20016;-71
2021/01/18 03:23:58;;;;;;;82.68;41.22;;;-4.10;99.90;;;;;;5074736;28;20020;-70
2021/01/18 03:26:25;;;;;;;82.32;42.60;;;-4.20;99.90;;;;;;5075321;28;20098;-71
2021/01/18 03:28:55;;;;;;;88.03;47.55;;;-4.20;99.90;;;;;;5074736;28;20475;-70
2021/01/18 03:31:22;;;;;;;81.32;42.47;;;-4.20;99.90;;;;;;5074715;28;20036;-72
2021/01/18 03:33:47;;;;;;;73.50;36.30;;;-4.30;99.90;;;;;;5069596;28;20103;-71
2021/01/18 03:36:14;;;;;;;98.07;49.83;;;-4.30;99.90;;;;;;5074795;28;20488;-71
2021/01/18 03:38:40;;;;;;;86.32;44.83;;;-4.30;99.90;;;;;;5074482;28;20024;-71
2021/01/18 03:41:07;;;;;;;75.50;43.90;;;-4.30;99.90;;;;;;5075194;28;20048;-70
2021/01/18 03:43:32;;;;;;;93.03;46.25;;;-4.20;99.90;;;;;;5075045;28;20031;-70
2021/01/18 03:45:58;;;;;;;92.95;47.88;;;-4.20;99.90;;;;;;5049648;28;20032;-71
2021/01/18 03:48:24;;;;;;;79.78;42.10;;;-4.10;99.90;;;;;;5070261;28;20107;-71
2021/01/18 03:50:50;;;;;;;74.25;39.63;;;-4.10;99.90;;;;;;5074673;28;20032;-70
2021/01/18 03:53:16;;;;;;;80.75;43.95;;;-4.00;99.90;;;;;;5074059;28;20070;-71
2021/01/18 03:55:41;;;;;;;80.15;41.55;;;-4.10;99.90;;;;;;5044560;28;20025;-70
2021/01/18 03:58:07;;;;;;;77.10;40.80;;;-3.80;99.90;;;;;;5072869;28;20031;-70
2021/01/18 04:00:35;;;;;;;81.15;41.25;;;-3.80;99.90;;;;;;5073933;28;20104;-71
2021/01/18 04:03:01;;;;;;;86.00;44.10;;;-3.70;99.90;;;;;;5074472;28;20023;-72
2021/01/18 04:05:27;;;;;;;81.82;43.28;;;-3.70;99.90;;;;;;5074235;28;20021;-71
2021/01/18 04:07:54;;;;;;;82.05;42.30;;;-3.50;99.90;;;;;;5073996;28;20032;-69
2021/01/18 04:10:27;;;;;;;74.28;41.22;;;-3.60;99.90;;;;;;5056538;28;20028;-70
2021/01/18 04:12:53;;;;;;;;;;;-3.70;99.90;;;;;;5074145;28;20020;-70
2021/01/18 04:15:21;;;;;;;84.40;44.65;;;-3.70;99.90;;;;;;5073457;28;19908;-71
2021/01/18 04:17:49;;;;;;;95.05;49.50;;;-3.60;99.90;;;;;;5055578;28;20402;-71
2021/01/18 04:20:16;;;;;;;704.58;391.63;;;-3.60;99.90;;;;;;5073789;28;20032;-72
2021/01/18 04:22:51;;;;;;;242.80;129.63;;;-3.60;99.90;;;;;;5074038;28;20017;-71
2021/01/18 04:25:19;;;;;;;92.22;48.10;;;-3.50;99.90;;;;;;5065133;28;20055;-70
2021/01/18 04:27:53;;;;;;;92.13;47.40;;;-3.60;99.90;;;;;;5073541;28;20074;-70
2021/01/18 04:30:21;;;;;;;79.90;44.95;;;-3.60;99.90;;;;;;5052813;28;20036;-71
2021/01/18 04:33:00;;;;;;;85.13;46.45;;;-3.50;99.90;;;;;;5070969;28;20112;-69
2021/01/18 04:35:27;;;;;;;83.53;46.05;;;-3.50;99.90;;;;;;5052418;28;20462;-70
2021/01/18 04:37:54;;;;;;;102.53;48.65;;;-3.50;99.90;;;;;;5055180;28;20112;-69
2021/01/18 04:40:21;;;;;;;85.93;49.28;;;-3.40;99.90;;;;;;5072653;28;20474;-69
2021/01/18 04:42:47;;;;;;;96.50;48.88;;;-3.40;99.90;;;;;;5073002;28;20024;-71
2021/01/18 04:45:16;;;;;;;89.22;47.42;;;-3.40;99.90;;;;;;5073213;28;20112;-71
2021/01/18 04:47:46;;;;;;;104.45;55.38;;;-3.40;99.90;;;;;;5069420;28;20063;-71
2021/01/18 04:50:14;;;;;;;123.78;61.55;;;-3.50;99.90;;;;;;5073539;28;20020;-72
2021/01/18 04:52:49;;;;;;;142.25;73.40;;;-3.60;99.90;;;;;;5073388;28;20032;-69
2021/01/18 04:55:44;;;;;;;126.78;65.95;;;-3.60;99.90;;;;;;5072817;28;20028;-71
2021/01/18 04:58:14;;;;;;;106.53;51.80;;;-3.80;99.90;;;;;;5073513;28;20080;-70
2021/01/18 05:00:48;;;;;;;92.50;52.10;;;-3.90;99.90;;;;;;5073605;28;20166;-72
2021/01/18 05:03:19;;;;;;;88.50;48.33;;;-4.10;99.90;;;;;;5073527;28;20024;-71
2021/01/18 05:05:51;;;;;;;91.60;45.05;;;-4.20;99.90;;;;;;5071314;28;20029;-70
2021/01/18 05:08:25;;;;;;;91.30;43.17;;;-4.40;99.90;;;;;;5072931;28;20028;-70
2021/01/18 05:10:52;;;;;;;88.60;43.10;;;-4.50;99.90;;;;;;5072646;28;20447;-70
2021/01/18 05:13:21;;;;;;;84.07;43.17;;;-4.50;99.90;;;;;;5073645;28;20101;-71
2021/01/18 05:15:48;;;;;;;82.57;41.50;;;-4.50;99.90;;;;;;5072817;28;20398;-70
2021/01/18 05:18:14;;;;;;;76.85;38.30;;;-4.50;99.90;;;;;;5073319;28;20052;-70
2021/01/18 05:20:40;;;;;;;95.60;44.88;;;-4.50;99.90;;;;;;5061928;28;20024;-71
2021/01/18 05:23:09;;;;;;;91.00;46.50;;;-4.50;99.90;;;;;;5069766;28;20095;-70
2021/01/18 05:25:35;;;;;;;102.38;53.50;;;-4.40;99.90;;;;;;5063468;28;20104;-70
2021/01/18 05:28:00;;;;;;;107.00;52.55;;;-4.40;99.90;;;;;;5068184;28;20382;-72
2021/01/18 05:30:28;;;;;;;97.55;50.85;;;-4.30;99.90;;;;;;5072723;28;20025;-71
2021/01/18 05:33:05;;;;;;;103.30;51.33;;;-4.30;99.90;;;;;;5072940;28;20104;-73
2021/01/18 05:35:32;;;;;;;72.65;35.75;;;-4.40;99.90;;;;;;5066689;28;20115;-72
2021/01/18 05:38:18;;;;;;;68.78;35.72;;;-4.50;99.90;;;;;;5072740;28;20044;-72
2021/01/18 05:40:47;;;;;;;77.90;35.30;;;-4.60;99.90;;;;;;5065770;28;20150;-70
2021/01/18 05:43:14;;;;;;;50.58;24.30;;;-4.60;99.90;;;;;;5061149;28;20111;-71
2021/01/18 05:45:42;;;;;;;74.28;36.78;;;-4.70;99.90;;;;;;5055243;28;20025;-72
2021/01/18 05:48:09;;;;;;;71.65;37.22;;;-4.60;99.90;;;;;;5072708;28;20071;-70
2021/01/18 05:50:37;;;;;;;84.97;42.90;;;-4.60;99.90;;;;;;5073906;28;20387;-70
2021/01/18 05:53:26;;;;;;;80.43;39.72;;;-4.60;99.90;;;;;;5074694;28;20374;-71
2021/01/18 05:55:52;;;;;;;55.25;28.60;;;-4.60;99.90;;;;;;5059769;28;20012;-70
2021/01/18 05:58:33;;;;;;;44.08;22.52;;;-4.60;99.90;;;;;;5074114;28;20494;-71
2021/01/18 06:01:02;;;;;;;37.47;19.70;;;-4.70;99.90;;;;;;5062531;28;20020;-70
2021/01/18 06:03:31;;;;;;;72.90;35.60;;;-4.80;99.90;;;;;;5075730;28;20040;-72
2021/01/18 06:06:00;;;;;;;62.05;32.40;;;-4.80;99.90;;;;;;5074336;28;20058;-71
2021/01/18 06:08:27;;;;;;;94.65;41.90;;;-4.90;99.90;;;;;;5076294;28;20116;-70
2021/01/18 06:10:55;;;;;;;75.63;36.65;;;-4.80;99.90;;;;;;5076119;28;20037;-71
2021/01/18 06:13:34;;;;;;;68.40;32.72;;;-4.90;99.90;;;;;;5076480;28;20024;-71
2021/01/18 06:16:03;;;;;;;72.25;35.50;;;-4.80;99.90;;;;;;5076559;28;20043;-71
2021/01/18 06:18:37;;;;;;;69.78;31.15;;;-4.80;99.90;;;;;;5078702;28;20056;-73
2021/01/18 06:21:08;;;;;;;89.45;42.13;;;-4.70;99.90;;;;;;5075580;28;20028;-72
2021/01/18 06:23:34;;;;;;;88.88;44.80;;;-4.70;99.90;;;;;;5057362;28;20362;-71
2021/01/18 06:26:00;;;;;;;119.35;54.92;;;-4.60;99.90;;;;;;5074379;28;20028;-72
2021/01/18 06:28:47;;;;;;;94.50;42.80;;;-4.60;99.90;;;;;;5074360;28;20052;-71
2021/01/18 06:31:15;;;;;;;104.35;52.50;;;-3.60;99.90;;;;;;5074943;28;20048;-71
2021/01/18 06:33:46;;;;;;;99.13;51.50;;;-4.40;99.90;;;;;;5073694;28;20016;-72
2021/01/18 06:36:13;;;;;;;108.47;51.58;;;-4.20;99.90;;;;;;5072307;28;20024;-72
2021/01/18 06:39:01;;;;;;;83.40;40.28;;;-4.40;99.90;;;;;;5075269;28;20039;-72
2021/01/18 06:41:29;;;;;;;96.45;47.50;;;-3.70;99.90;;;;;;5074256;28;20086;-70
2021/01/18 06:43:55;;;;;;;89.35;45.55;;;-3.80;99.90;;;;;;5074372;28;20085;-70
2021/01/18 06:46:25;;;;;;;88.35;44.65;;;-3.90;99.90;;;;;;5074206;28;20066;-72
2021/01/18 06:48:52;;;;;;;86.20;43.63;;;-4.10;99.90;;;;;;5055924;28;20139;-72
2021/01/18 06:51:23;;;;;;;64.30;33.60;;;-4.00;99.90;;;;;;5056439;28;20033;-72
2021/01/18 06:53:50;;;;;;;53.10;26.48;;;-4.00;99.90;;;;;;5073720;28;20537;-72
2021/01/18 06:56:22;;;;;;;92.63;47.85;;;-3.90;99.90;;;;;;5056816;28;20031;-71
2021/01/18 06:59:28;;;;;;;97.20;49.25;;;-3.60;99.90;;;;;;5075419;28;20032;-71
2021/01/18 07:02:10;;;;;;;92.15;46.45;;;-3.50;99.90;;;;;;5072398;28;20371;-72
2021/01/18 07:04:45;;;;;;;98.93;50.03;;;-3.40;99.90;;;;;;5073091;28;20028;-70
2021/01/18 07:07:23;;;;;;;110.28;55.42;;;-3.40;99.90;;;;;;5068694;28;20020;-69
2021/01/18 07:09:57;;;;;;;120.20;60.95;;;-3.40;99.90;;;;;;5074450;28;20017;-70
2021/01/18 07:12:24;;;;;;;117.57;59.03;;;-3.40;99.90;;;;;;5075078;28;20518;-71
2021/01/18 07:14:57;;;;;;;87.03;42.60;;;-3.40;99.90;;;;;;5074825;28;20103;-71
2021/01/18 07:17:49;;;;;;;72.70;35.13;;;-3.50;99.90;;;;;;5070989;28;20068;-70
2021/01/18 07:20:29;;;;;;;92.70;47.90;;;-3.60;99.90;;;;;;5061314;28;20079;-71
2021/01/18 07:23:06;;;;;;;96.68;48.95;;;-3.50;99.90;;;;;;5066198;28;20059;-72
2021/01/18 07:25:39;;;;;;;110.32;58.90;;;-3.40;99.90;;;;;;5068771;28;20031;-71
2021/01/18 07:28:06;;;;;;;104.72;54.03;;;-3.40;99.90;;;;;;5074429;28;20041;-71
2021/01/18 07:30:36;;;;;;;94.93;51.03;;;-3.40;99.90;;;;;;5073935;28;20029;-71
2021/01/18 07:33:11;;;;;;;95.05;49.42;;;-3.40;99.90;;;;;;5074002;28;20031;-70
2021/01/18 07:35:41;;;;;;;108.45;53.78;;;-3.40;99.90;;;;;;5073778;28;20028;-71
2021/01/18 07:38:17;;;;;;;94.85;50.85;;;-3.30;99.90;;;;;;5061124;28;20033;-71
2021/01/18 07:41:07;;;;;;;116.90;60.55;;;-3.10;99.90;;;;;;5064336;28;20519;-71
2021/01/18 07:43:38;;;;;;;96.32;46.13;;;-3.00;99.90;;;;;;5074581;28;20031;-72
2021/01/18 07:46:26;;;;;;;97.63;49.50;;;-3.10;99.90;;;;;;5074505;28;20382;-72
2021/01/18 07:48:56;;;;;;;91.90;50.67;;;-2.40;99.90;;;;;;5055890;28;20032;-71
2021/01/18 07:51:29;;;;;;;112.70;61.45;;;-2.80;99.90;;;;;;5069793;28;20035;-73
2021/01/18 07:53:55;;;;;;;103.00;54.20;;;-2.60;99.90;;;;;;5064023;28;20055;-72
2021/01/18 07:56:25;;;;;;;79.68;41.80;;;-2.40;99.90;;;;;;5068893;28;20040;-73
2021/01/18 07:58:59;;;;;;;85.05;43.25;;;-2.50;99.90;;;;;;5040298;28;20115;-72
2021/01/18 08:01:28;;;;;;;98.30;48.70;;;-2.40;99.90;;;;;;5052065;28;20031;-73
2021/01/18 08:04:14;;;;;;;86.45;44.72;;;-2.40;99.90;;;;;;5072112;28;20032;-72
2021/01/18 08:07:02;;;;;;;91.97;49.20;;;-2.20;99.90;;;;;;5067117;28;20032;-72
2021/01/18 08:09:28;;;;;;;92.63;44.78;;;-2.10;99.90;;;;;;5046162;28;20043;-71
2021/01/18 08:12:13;;;;;;;76.85;34.55;;;-2.00;99.90;;;;;;5057892;28;20475;-69
2021/01/18 08:14:51;;;;;;;92.55;42.75;;;-2.00;99.90;;;;;;5069750;28;20040;-69
2021/01/18 08:17:17;;;;;;;88.28;45.60;;;-1.90;99.90;;;;;;5072585;28;20048;-70
2021/01/18 08:20:08;;;;;;;86.65;46.55;;;-2.00;99.90;;;;;;5048647;28;20025;-71
2021/01/18 08:22:34;;;;;;;88.25;44.75;;;-1.80;99.90;;;;;;5059684;28;20078;-71
2021/01/18 08:25:01;;;;;;;91.68;47.75;;;-1.80;99.90;;;;;;5061793;28;20028;-71
2021/01/18 08:27:38;;;;;;;96.03;46.40;;;-1.70;99.90;;;;;;5073741;28;20374;-72
2021/01/18 08:30:28;;;;;;;54.13;30.15;;;-1.80;99.90;;;;;;5067177;28;20344;-72
2021/01/18 08:33:07;;;;;;;85.60;44.63;;;-1.60;99.90;;;;;;5065738;28;20036;-72
2021/01/18 08:35:43;;;;;;;76.47;38.72;;;-1.50;99.90;;;;;;5064667;28;20450;-73
2021/01/18 08:38:20;;;;;;;96.15;52.10;;;-1.60;99.90;;;;;;5076842;28;20033;-73
2021/01/18 08:40:51;;;;;;;78.22;41.75;;;-1.60;99.90;;;;;;5064269;28;20488;-72
2021/01/18 08:43:19;;;;;;;97.65;47.85;;;-1.40;99.90;;;;;;5064030;28;20021;-74
2021/01/18 08:45:47;;;;;;;80.72;41.25;;;-1.40;99.90;;;;;;5070941;28;20036;-71
2021/01/18 08:48:15;;;;;;;93.60;46.90;;;-1.30;99.90;;;;;;5071902;28;20470;-70
2021/01/18 08:50:52;;;;;;;68.43;38.30;;;-1.40;99.90;;;;;;5055960;28;20048;-72
2021/01/18 08:53:26;;;;;;;83.60;42.95;;;-1.50;99.90;;;;;;5055453;28;20036;-73
2021/01/18 08:55:59;;;;;;;79.00;39.38;;;-1.30;99.90;;;;;;5073093;28;20043;-72
2021/01/18 08:58:42;;;;;;;71.38;37.45;;;-1.30;99.90;;;;;;5073107;28;20614;-73
2021/01/18 09:01:19;;;;;;;69.47;33.88;;;-1.30;99.90;;;;;;5061157;28;20025;-71
2021/01/18 09:03:45;;;;;;;50.03;28.92;;;-1.20;99.90;;;;;;5073008;28;20028;-71
2021/01/18 09:06:12;;;;;;;64.55;31.67;;;-1.30;99.90;;;;;;5073423;28;20028;-71
2021/01/18 09:08:40;;;;;;;67.70;35.83;;;-1.20;99.90;;;;;;5072774;28;20025;-69
2021/01/18 09:11:10;;;;;;;68.57;34.40;;;-1.10;99.90;;;;;;5072625;28;20024;-70
2021/01/18 09:13:39;;;;;;;60.40;33.55;;;-1.00;99.90;;;;;;5072817;28;20024;-73
2021/01/18 09:16:09;;;;;;;68.65;38.50;;;-0.90;99.90;;;;;;5072632;28;20029;-71
2021/01/18 09:18:36;;;;;;;74.78;39.30;;;-0.90;99.90;;;;;;5073046;28;20056;-72
2021/01/18 09:21:05;;;;;;;75.40;39.03;;;-0.70;99.90;;;;;;5072601;28;20032;-71
2021/01/18 09:23:31;;;;;;;59.00;30.95;;;-0.60;99.90;;;;;;5068733;28;20029;-72
2021/01/18 09:26:18;;;;;;;68.13;36.42;;;-0.90;99.90;;;;;;5052519;28;20391;-71
2021/01/18 09:28:54;;;;;;;58.55;32.45;;;-1.10;99.90;;;;;;5052761;28;20028;-70
2021/01/18 09:31:21;;;;;;;62.15;33.85;;;-1.10;99.90;;;;;;5067652;28;20040;-70
2021/01/18 09:33:47;;;;;;;64.57;32.38;;;-1.00;99.90;;;;;;5072855;28;20401;-70
2021/01/18 09:36:20;;;;;;;61.63;31.48;;;-0.90;99.90;;;;;;5072818;28;20386;-72
2021/01/18 09:38:47;;;;;;;63.65;33.55;;;-0.70;99.90;;;;;;5052701;28;20412;-71
2021/01/18 09:41:15;;;;;;;70.05;36.45;;;-0.40;99.90;;;;;;5064796;28;20032;-72
2021/01/18 09:43:42;;;;;;;62.90;31.35;;;-0.30;99.90;;;;;;5072701;28;20013;-71
2021/01/18 09:46:08;;;;;;;74.35;37.35;;;-0.50;99.90;;;;;;5072658;28;20060;-71
2021/01/18 09:48:34;;;;;;;81.35;40.17;;;0.00;99.90;;;;;;5072352;28;20036;-70
2021/01/18 09:51:03;;;;;;;66.47;35.92;;;0.10;99.90;;;;;;5072394;28;20086;-69
2021/01/18 09:53:30;;;;;;;64.70;34.17;;;0.70;99.90;;;;;;5056131;28;20503;-72
2021/01/18 09:56:00;;;;;;;68.97;33.88;;;0.70;99.90;;;;;;5059783;28;20020;-71
2021/01/18 09:58:32;;;;;;;58.47;29.38;;;;;;;;;;5072514;28;20418;-72
2021/01/18 10:01:00;;;;;;;60.92;33.45;;;1.40;99.90;;;;;;5045091;28;20024;-72
2021/01/18 10:03:34;;;;;;;68.90;34.70;;;1.60;99.90;;;;;;5072047;28;20094;-73
2021/01/18 10:06:12;;;;;;;56.08;31.27;;;1.40;99.90;;;;;;5072426;28;20025;-74
2021/01/18 10:08:43;;;;;;;63.03;31.73;;;1.30;99.90;;;;;;5072727;28;20029;-73
2021/01/18 10:11:09;;;;;;;50.45;27.13;;;0.80;99.90;;;;;;5054366;28;20033;-70
2021/01/18 10:13:35;;;;;;;57.25;29.70;;;0.80;99.90;;;;;;5054549;28;20036;-70
2021/01/18 10:16:12;;;;;;;46.15;26.35;;;0.70;99.90;;;;;;5071674;28;20033;-73
2021/01/18 10:18:42;;;;;;;50.78;24.67;;;0.30;99.90;;;;;;5071051;28;20036;-72
2021/01/18 10:21:09;;;;;;;44.42;23.15;;;0.30;99.90;;;;;;5072320;28;20017;-72
2021/01/18 10:23:38;;;;;;;45.50;22.88;;;0.40;99.90;;;;;;5070976;28;20025;-73
2021/01/18 10:26:34;;;;;;;57.10;29.83;;;0.20;99.90;;;;;;5070873;28;20028;-71
2021/01/18 10:29:02;;;;;;;49.38;26.27;;;0.50;99.90;;;;;;5068739;28;20041;-75
2021/01/18 10:31:31;;;;;;;62.08;32.42;;;0.50;99.90;;;;;;5070417;28;20426;-73
2021/01/18 10:34:30;;;;;;;47.78;24.05;;;0.40;99.90;;;;;;5070773;28;20017;-73
2021/01/18 10:37:07;;;;;;;45.00;20.60;;;0.60;99.90;;;;;;4948552;28;20039;-72
2021/01/18 10:39:35;;;;;;;39.28;22.88;;;0.40;99.90;;;;;;4969562;28;20514;-72
2021/01/18 10:42:06;;;;;;;54.05;27.73;;;0.40;99.90;;;;;;4972685;28;20023;-74
2021/01/18 10:44:33;;;;;;;56.33;25.58;;;0.40;99.90;;;;;;4969465;28;20031;-73
2021/01/18 10:46:59;;;;;;;54.17;27.67;;;0.30;99.90;;;;;;4972494;28;20031;-71
2021/01/18 10:49:27;;;;;;;50.60;27.83;;;0.30;99.90;;;;;;4969412;28;20182;-71
2021/01/18 10:51:59;;;;;;;56.47;29.42;;;0.20;99.90;;;;;;4969319;28;20035;-71
2021/01/18 10:54:25;;;;;;;59.67;30.77;;;0.60;99.90;;;;;;4974197;28;20505;-69
2021/01/18 10:56:51;;;;;;;56.47;32.78;;;0.30;99.90;;;;;;4977155;28;20038;-71
2021/01/18 10:59:17;;;;;;;63.80;35.72;;;0.70;99.90;;;;;;4975607;28;20533;-70
2021/01/18 11:02:11;;;;;;;61.67;33.28;;;0.60;99.90;;;;;;4973499;28;20413;-72
2021/01/18 11:04:45;;;;;;;61.22;33.85;;;0.80;99.90;;;;;;4973470;28;20030;-71
2021/01/18 11:07:12;;;;;;;58.38;34.80;;;0.80;99.90;;;;;;4962517;28;20036;-71
2021/01/18 11:09:38;;;;;;;47.13;26.55;;;0.50;99.90;;;;;;4955963;28;20063;-72
2021/01/18 11:12:05;;;;;;;57.88;31.48;;;0.30;99.90;;;;;;4975115;28;20036;-71
2021/01/18 11:14:31;;;;;;;60.05;29.45;;;0.50;99.90;;;;;;5071584;28;20414;-72
2021/01/18 11:17:09;;;;;;;51.85;27.98;;;0.60;99.90;;;;;;5071081;28;20057;-72
2021/01/18 11:19:36;;;;;;;54.03;28.65;;;0.30;99.90;;;;;;5074898;28;20033;-74
2021/01/18 11:22:03;;;;;;;53.22;28.63;;;0.40;99.90;;;;;;5074597;28;20021;-72
2021/01/18 11:24:29;;;;;;;67.40;34.60;;;0.20;99.90;;;;;;5056194;28;20024;-73
2021/01/18 11:26:55;;;;;;;53.58;26.63;;;0.20;99.90;;;;;;5074577;28;20363;-72
2021/01/18 11:29:21;;;;;;;50.13;27.60;;;0.10;99.90;;;;;;5074877;28;20415;-72
2021/01/18 11:31:48;;;;;;;61.33;30.20;;;-0.10;99.90;;;;;;5055167;28;20374;-73
2021/01/18 11:34:14;;;;;;;65.15;35.55;;;-0.10;99.90;;;;;;5074514;28;20477;-76
2021/01/18 11:36:41;;;;;;;65.55;34.75;;;-0.20;99.90;;;;;;5075148;28;20486;-72
2021/01/18 11:39:07;;;;;;;70.00;35.33;;;-0.20;99.90;;;;;;5056671;28;20032;-70
2021/01/18 11:41:34;;;;;;;68.60;36.88;;;-0.10;99.90;;;;;;5074093;28;20032;-73
2021/01/18 11:44:01;;;;;;;57.20;31.30;;;-0.20;99.90;;;;;;5074575;28;20100;-73
2021/01/18 11:46:27;;;;;;;84.75;42.58;;;-0.20;99.90;;;;;;5073590;28;20021;-73
2021/01/18 11:48:53;;;;;;;77.28;39.90;;;-0.10;99.90;;;;;;5073831;28;20036;-72
2021/01/18 11:51:18;;;;;;;69.68;36.28;;;0.20;99.90;;;;;;5074347;28;20024;-70
2021/01/18 11:53:46;;;;;;;77.45;36.88;;;0.40;99.90;;;;;;5073888;28;20033;-71
2021/01/18 11:56:12;;;;;;;80.72;42.38;;;0.40;99.90;;;;;;5073105;28;20028;-71
2021/01/18 11:58:38;;;;;;;76.63;38.88;;;0.60;99.90;;;;;;5073757;28;20112;-70
2021/01/18 12:01:03;;;;;;;56.20;29.60;;;0.70;99.90;;;;;;5072625;28;20460;-70
2021/01/18 12:03:29;;;;;;;66.70;38.17;;;0.70;99.90;;;;;;5072881;28;20028;-72
2021/01/18 12:05:55;;;;;;;63.90;36.60;;;0.90;99.90;;;;;;5073324;28;20030;-70
2021/01/18 12:08:20;;;;;;;70.35;36.20;;;0.90;99.90;;;;;;5073083;28;20483;-72
2021/01/18 12:10:46;;;;;;;55.85;29.77;;;1.20;99.90;;;;;;5072262;28;20471;-71
2021/01/18 12:13:12;;;;;;;70.45;36.50;;;1.10;99.90;;;;;;5073562;28;20055;-70
2021/01/18 12:15:37;;;;;;;75.43;36.75;;;1.00;99.90;;;;;;5073596;28;20032;-74
2021/01/18 12:18:04;;;;;;;64.85;37.72;;;0.90;99.90;;;;;;5073740;28;20037;-72
2021/01/18 12:20:30;;;;;;;72.07;36.90;;;1.20;99.90;;;;;;5073980;28;20043;-73
2021/01/18 12:22:57;;;;;;;64.93;35.80;;;1.40;99.90;;;;;;5064863;28;20385;-73
2021/01/18 12:25:24;;;;;;;73.65;41.67;;;1.20;99.90;;;;;;5072178;28;20039;-73
2021/01/18 12:27:52;;;;;;;87.38;46.38;;;1.30;99.90;;;;;;5073543;28;20020;-70
2021/01/18 12:30:19;;;;;;;74.90;42.67;;;1.30;99.90;;;;;;5059278;28;20081;-71
2021/01/18 12:32:45;;;;;;;77.85;44.05;;;1.10;99.90;;;;;;5072976;28;20112;-72
2021/01/18 12:35:11;;;;;;;79.40;41.15;;;0.90;99.90;;;;;;5072624;28;20477;-73
2021/01/18 12:37:37;;;;;;;79.97;43.90;;;0.80;99.90;;;;;;5071968;28;20039;-70
2021/01/18 12:40:08;;;;;;;70.30;37.65;;;0.70;99.90;;;;;;5072806;28;20025;-73
2021/01/18 12:42:34;;;;;;;89.68;47.92;;;0.60;99.90;;;;;;5073044;28;20024;-70
2021/01/18 12:45:00;;;;;;;98.03;51.28;;;0.50;99.90;;;;;;5072147;28;20032;-72
2021/01/18 12:47:26;;;;;;;73.85;37.55;;;0.60;99.90;;;;;;5047613;28;20044;-71
2021/01/18 12:49:51;;;;;;;88.50;47.92;;;0.30;99.90;;;;;;5065928;28;20379;-73